Time;durP1;ratioP1;P1;durP2;ratioP2;P2;SDS_P1;SDS_P2;PMS_P1;PMS_P2;Temp;Humidity;BMP_temperature;BMP_pressure;BME280_temperature;BME280_humidity;BME280_pressure;Samples;Min_cycle;Max_cycle;Signal;HPM_P1;HPM_P2
2022/02/05 00:00:52;;;;;;;8.65;1.13;;;19.40;18.70;;;;;;5069205;28;20055;-64
2022/02/05 00:03:27;;;;;;;7.68;1.05;;;19.40;18.70;;;;;;5069958;28;20073;-66
2022/02/05 00:05:57;;;;;;;4.78;0.77;;;19.30;18.60;;;;;;5052261;28;20145;-64
2022/02/05 00:08:41;;;;;;;7.05;0.93;;;19.10;18.70;;;;;;5067983;28;20164;-63
2022/02/05 00:43:10;;;;;;;7.50;1.15;;;18.70;19.20;;;;;;5072318;28;19957;-66
2022/02/05 00:45:41;;;;;;;16.48;1.25;;;18.80;18.90;;;;;;5069733;28;20072;-69
2022/02/05 00:48:09;;;;;;;7.18;1.20;;;18.70;18.70;;;;;;5070400;28;20084;-66
2022/02/05 00:50:39;;;;;;;12.60;1.42;;;18.50;19.00;;;;;;5069244;28;20093;-64
2022/02/05 00:53:26;;;;;;;5.47;1.00;;;18.40;19.20;;;;;;5054451;28;20152;-65
2022/02/05 00:56:09;;;;;;;9.15;1.55;;;18.20;19.50;;;;;;5069887;28;20081;-66
2022/02/05 00:58:39;;;;;;;3.67;1.10;;;18.00;19.90;;;;;;5070503;28;20077;-65
2022/02/05 01:01:10;;;;;;;12.18;1.48;;;17.80;20.10;;;;;;5069561;28;20168;-66
2022/02/05 01:03:37;;;;;;;6.65;1.30;;;17.60;20.20;;;;;;5071214;28;20163;-64
2022/02/05 01:06:06;;;;;;;7.53;1.17;;;17.60;20.50;;;;;;5072383;28;20077;-66
2022/02/05 01:08:34;;;;;;;6.43;1.25;;;17.40;20.60;;;;;;5072125;28;20081;-66
2022/02/05 01:11:00;;;;;;;11.15;1.50;;;17.30;20.70;;;;;;5069231;28;20093;-63
2022/02/05 01:13:29;;;;;;;7.78;1.50;;;17.20;21.00;;;;;;5070095;28;20069;-66
2022/02/05 01:18:28;;;;;;;8.15;1.20;;;17.00;21.40;;;;;;5071331;28;20109;-65
2022/02/05 01:23:32;;;;;;;10.45;1.77;;;16.90;21.70;;;;;;5071373;28;20155;-65
2022/02/05 01:26:09;;;;;;;12.63;1.80;;;16.80;22.00;;;;;;5053519;28;20549;-65
2022/02/05 01:28:37;;;;;;;17.17;2.33;;;16.70;22.20;;;;;;5071394;28;20524;-66
2022/02/05 01:31:07;;;;;;;10.40;2.10;;;16.50;22.30;;;;;;5070310;28;20172;-64
2022/02/05 01:33:50;;;;;;;13.93;1.90;;;16.50;22.60;;;;;;5071134;28;20069;-67
2022/02/05 01:58:12;;;;;;;15.25;2.95;;;15.60;24.10;;;;;;5070204;28;20157;-65
2022/02/05 02:11:37;;;;;;;13.85;2.35;;;15.30;24.60;;;;;;5070473;28;20573;-66
2022/02/05 02:14:25;;;;;;;12.52;1.95;;;15.20;24.80;;;;;;5069376;28;20554;-68
2022/02/05 02:22:21;;;;;;;18.52;3.95;;;15.10;25.20;;;;;;5069409;28;20100;-64
2022/02/05 02:27:48;;;;;;;10.82;2.33;;;14.90;25.40;;;;;;5069112;28;20081;-63
2022/02/05 02:30:23;;;;;;;13.75;2.30;;;14.90;25.60;;;;;;5068473;28;20093;-63
2022/02/05 02:32:58;;;;;;;16.92;2.33;;;14.80;25.70;;;;;;5068384;28;20099;-67
2022/02/05 02:35:27;;;;;;;17.70;2.20;;;14.70;25.70;;;;;;5070015;28;20461;-67
2022/02/05 02:38:01;;;;;;;12.45;2.10;;;14.70;25.90;;;;;;5068585;28;20539;-68
2022/02/05 02:40:44;;;;;;;13.63;2.72;;;14.60;26.10;;;;;;5070233;28;20844;-68
2022/02/05 02:43:17;;;;;;;18.52;2.00;;;14.50;26.20;;;;;;5068711;28;20075;-67
2022/02/05 02:45:45;;;;;;;22.75;2.63;;;14.40;26.50;;;;;;5068802;28;20077;-65
2022/02/05 02:48:13;;;;;;;17.50;2.80;;;14.30;26.50;;;;;;5068847;28;20096;-66
2022/02/05 02:58:54;;;;;;;21.83;3.63;;;14.20;27.00;;;;;;5070175;28;20649;-66
2022/02/05 03:01:21;;;;;;;16.98;3.70;;;14.10;27.10;;;;;;5070138;28;20069;-69
2022/02/05 03:03:48;;;;;;;24.27;4.05;;;14.10;27.40;;;;;;5068938;28;20073;-65
2022/02/05 03:06:14;;;;;;;24.48;3.60;;;14.10;27.70;;;;;;5069391;28;20554;-64
2022/02/05 03:08:44;;;;;;;12.38;3.22;;;14.00;27.80;;;;;;5068506;28;20104;-67
2022/02/05 03:11:11;;;;;;;22.60;4.97;;;13.90;28.10;;;;;;5068143;28;20223;-65
2022/02/05 03:13:37;;;;;;;26.10;5.20;;;13.80;28.40;;;;;;5068458;28;20569;-66
2022/02/05 03:16:03;;;;;;;;;;;13.80;28.60;;;;;;5068425;28;20076;-67
2022/02/05 03:18:44;;;;;;;25.33;5.15;;;13.80;28.80;;;;;;5068316;28;19991;-66
2022/02/05 03:21:11;;;;;;;23.45;4.50;;;13.70;28.70;;;;;;5068714;28;20076;-67
2022/02/05 03:23:37;;;;;;;26.23;5.32;;;13.70;28.80;;;;;;5068115;28;20085;-65
2022/02/05 03:26:03;;;;;;;;;;;13.60;29.00;;;;;;5068320;28;20081;-67
2022/02/05 03:28:34;;;;;;;32.00;5.40;;;13.60;29.20;;;;;;5068983;28;19980;-66
2022/02/05 03:31:00;;;;;;;26.83;5.07;;;13.60;29.40;;;;;;5068463;28;20142;-66
2022/02/05 03:33:26;;;;;;;;;;;13.60;29.60;;;;;;5071289;28;20146;-66
2022/02/05 03:35:53;;;;;;;26.08;6.25;;;13.50;29.90;;;;;;5069229;28;20322;-66
2022/02/05 03:38:19;;;;;;;;;;;13.50;29.90;;;;;;5069293;28;20073;-66
2022/02/05 03:40:45;;;;;;;33.78;7.53;;;13.50;29.90;;;;;;5068798;28;20493;-65
2022/02/05 03:43:11;;;;;;;;;;;13.40;29.90;;;;;;5070695;28;20092;-66
2022/02/05 03:45:38;;;;;;;28.23;6.53;;;13.30;29.90;;;;;;5069877;28;20043;-65
2022/02/05 03:48:05;;;;;;;;;;;13.30;29.80;;;;;;5071383;28;20545;-65
2022/02/05 03:50:32;;;;;;;;;;;13.30;29.90;;;;;;5074564;28;19980;-66
2022/02/05 03:52:59;;;;;;;32.47;6.95;;;13.30;29.90;;;;;;5074416;28;19977;-66
2022/02/05 03:55:25;;;;;;;36.05;7.55;;;13.30;29.90;;;;;;5072625;28;20164;-65
2022/02/05 03:57:51;;;;;;;;;;;13.20;29.90;;;;;;5074581;28;20146;-65
2022/02/05 04:00:18;;;;;;;39.72;9.38;;;13.20;30.00;;;;;;5072754;28;19963;-65
2022/02/05 04:02:45;;;;;;;32.75;9.07;;;13.10;30.30;;;;;;5072996;28;20073;-68
2022/02/05 04:05:11;;;;;;;;;;;13.00;30.50;;;;;;5073049;28;20073;-65
2022/02/05 04:07:42;;;;;;;46.70;13.20;;;12.80;30.70;;;;;;5072815;28;20426;-65
2022/02/05 04:10:11;;;;;;;46.72;14.15;;;12.90;30.80;;;;;;5072702;28;20123;-65
2022/02/05 04:18:07;;;;;;;47.65;19.35;;;12.70;30.40;;;;;;5072190;28;20147;-67
2022/02/05 04:20:34;;;;;;;53.92;20.52;;;12.70;30.20;;;;;;5072799;28;20084;-65
2022/02/05 04:23:01;;;;;;;45.38;18.92;;;12.70;29.80;;;;;;5071765;28;20076;-66
2022/02/05 04:25:27;;;;;;;40.83;15.10;;;12.60;29.50;;;;;;5054245;28;20077;-68
2022/02/05 04:27:54;;;;;;;42.08;12.65;;;12.60;29.30;;;;;;5071062;28;20081;-68
2022/02/05 04:30:20;;;;;;;46.83;11.38;;;12.60;29.20;;;;;;5071470;28;20092;-66
2022/02/05 04:32:46;;;;;;;;;;;12.50;29.20;;;;;;5072771;28;20569;-64
2022/02/05 04:35:12;;;;;;;30.50;12.13;;;12.50;29.40;;;;;;5072116;28;20334;-67
2022/02/05 04:37:39;;;;;;;;;;;12.50;29.40;;;;;;5071450;28;20081;-67
2022/02/05 04:42:46;;;;;;;32.05;10.77;;;12.50;29.30;;;;;;5071834;28;20099;-66
2022/02/05 04:48:18;;;;;;;41.22;11.70;;;12.40;28.80;;;;;;5072666;28;20088;-66
2022/02/05 04:53:31;;;;;;;37.55;11.13;;;12.40;28.50;;;;;;5071323;28;20528;-66
2022/02/05 05:01:05;;;;;;;;;;;12.20;28.10;;;;;;5072405;28;20446;-66
2022/02/05 05:03:48;;;;;;;40.92;14.63;;;12.20;28.60;;;;;;5072775;28;19984;-66
2022/02/05 05:09:13;;;;;;;27.88;10.85;;;12.10;27.90;;;;;;5070304;28;20123;-65
2022/02/05 05:19:38;;;;;;;21.40;8.20;;;12.10;27.30;;;;;;5071151;28;20538;-61
2022/02/05 05:22:05;;;;;;;18.73;9.75;;;12.10;27.10;;;;;;5069653;28;20175;-64
2022/02/05 05:24:32;;;;;;;21.92;10.25;;;12.10;27.40;;;;;;5074797;28;20065;-66
2022/02/05 05:26:58;;;;;;;25.80;11.63;;;12.10;26.80;;;;;;5071070;28;20073;-65
2022/02/05 05:29:25;;;;;;;26.30;9.65;;;12.00;26.80;;;;;;5070470;28;20226;-66
2022/02/05 05:31:51;;;;;;;32.40;13.13;;;12.10;26.70;;;;;;5069856;28;20616;-63
2022/02/05 05:34:17;;;;;;;;;;;12.00;26.60;;;;;;5072532;28;20091;-63
2022/02/05 05:36:44;;;;;;;27.48;11.80;;;12.00;26.60;;;;;;5071346;28;20010;-65
2022/02/05 05:39:12;;;;;;;;;;;12.00;26.60;;;;;;5070634;28;20927;-65
2022/02/05 05:41:39;;;;;;;21.38;7.95;;;12.00;26.50;;;;;;5070216;28;19972;-66
2022/02/05 05:47:13;;;;;;;15.33;5.87;;;11.90;26.50;;;;;;5030133;28;20172;-65
2022/02/05 05:50:03;;;;;;;14.10;4.45;;;11.90;26.50;;;;;;5070646;28;20093;-65
2022/02/05 05:52:25;;;;;;;14.50;3.47;;;12.00;26.50;;;;;;5070057;28;20447;-67
2022/02/05 05:54:52;;;;;;;11.48;4.13;;;11.90;26.30;;;;;;5071070;28;20068;-63
2022/02/05 05:57:19;;;;;;;12.60;3.58;;;11.90;26.40;;;;;;5051173;28;20076;-65
2022/02/05 05:59:46;;;;;;;17.45;3.53;;;12.00;26.40;;;;;;5071089;28;20123;-66
2022/02/05 06:02:12;;;;;;;13.98;3.13;;;12.00;26.40;;;;;;5071090;28;20085;-65
2022/02/05 06:04:40;;;;;;;11.65;3.50;;;12.00;26.50;;;;;;5052273;28;20164;-65
2022/02/05 06:07:07;;;;;;;13.43;3.80;;;12.00;26.50;;;;;;5068080;28;20072;-66
2022/02/05 06:09:36;;;;;;;14.05;3.33;;;12.00;26.60;;;;;;5070943;28;20460;-66
2022/02/05 06:12:03;;;;;;;18.15;3.50;;;11.90;26.70;;;;;;5068342;28;20088;-65
2022/02/05 06:14:29;;;;;;;12.65;3.83;;;11.90;26.90;;;;;;5052744;28;20134;-65
2022/02/05 06:17:02;;;;;;;10.52;4.40;;;11.80;26.80;;;;;;5070724;28;20109;-65
2022/02/05 06:19:28;;;;;;;8.20;3.88;;;11.80;26.90;;;;;;5069294;28;20084;-65
2022/02/05 06:21:55;;;;;;;15.80;3.67;;;11.80;27.00;;;;;;5070578;28;20092;-66
2022/02/05 06:24:21;;;;;;;9.85;2.53;;;11.70;27.20;;;;;;5052806;28;20077;-65
2022/02/05 06:26:47;;;;;;;;;;;11.80;27.10;;;;;;5067972;28;20443;-66
2022/02/05 06:29:14;;;;;;;13.52;2.50;;;11.70;27.00;;;;;;5069011;28;20002;-66
2022/02/05 06:31:40;;;;;;;;;;;11.70;27.00;;;;;;5068422;28;20085;-64
2022/02/05 06:34:06;;;;;;;8.73;2.03;;;11.70;27.10;;;;;;5068553;28;19980;-65
2022/02/05 06:36:33;;;;;;;6.45;2.10;;;11.70;26.90;;;;;;5068406;28;20080;-66
2022/02/05 06:38:59;;;;;;;;;;;11.70;26.90;;;;;;5069338;28;20088;-67
2022/02/05 06:41:25;;;;;;;9.65;2.22;;;11.70;26.90;;;;;;5070301;28;19957;-65
2022/02/05 06:43:51;;;;;;;12.52;2.40;;;11.70;26.90;;;;;;5067850;28;20073;-64
2022/02/05 06:46:17;;;;;;;;;;;11.70;26.90;;;;;;5069252;28;20592;-66
2022/02/05 06:48:44;;;;;;;9.15;2.10;;;11.70;26.90;;;;;;5067649;28;19968;-66
2022/02/05 06:51:10;;;;;;;;;;;11.60;26.90;;;;;;5067933;28;20558;-65
2022/02/05 06:53:36;;;;;;;10.02;2.33;;;11.60;26.80;;;;;;5067821;28;20055;-65
2022/02/05 06:56:02;;;;;;;;;;;11.60;26.90;;;;;;5068295;28;20081;-67
2022/02/05 06:58:29;;;;;;;13.10;2.10;;;11.60;26.90;;;;;;5068621;28;19996;-65
2022/02/05 07:00:55;;;;;;;16.25;2.53;;;11.50;26.90;;;;;;5069907;28;20087;-65
2022/02/05 07:03:21;;;;;;;;;;;11.40;27.00;;;;;;5067659;28;20610;-64
2022/02/05 07:05:48;;;;;;;15.73;3.83;;;11.40;27.40;;;;;;5068742;28;19957;-65
2022/02/05 07:08:15;;;;;;;16.45;4.22;;;11.20;27.90;;;;;;5069426;28;20112;-67
2022/02/05 07:10:41;;;;;;;;;;;11.10;28.20;;;;;;5067385;28;20183;-66
2022/02/05 07:13:16;;;;;;;24.00;6.57;;;11.00;28.50;;;;;;5067688;28;19957;-65
2022/02/05 07:15:56;;;;;;;23.00;7.10;;;10.90;28.70;;;;;;5068285;28;20079;-65
2022/02/05 07:18:46;;;;;;;35.63;7.90;;;10.80;29.00;;;;;;5067983;28;20203;-65
2022/02/05 07:31:35;;;;;;;13.60;4.13;;;10.50;28.70;;;;;;5069122;28;20454;-67
2022/02/05 07:34:02;;;;;;;13.52;3.25;;;10.60;28.70;;;;;;5068530;28;20073;-66
2022/02/05 07:36:29;;;;;;;13.70;2.72;;;10.60;28.60;;;;;;5067913;28;20131;-66
2022/02/05 07:38:55;;;;;;;9.85;2.35;;;10.60;28.60;;;;;;5069527;28;20069;-64
2022/02/05 07:41:21;;;;;;;;;;;10.60;28.50;;;;;;5068535;28;20163;-66
2022/02/05 07:43:48;;;;;;;12.27;3.17;;;10.60;28.40;;;;;;5067818;28;20093;-66
2022/02/05 07:46:14;;;;;;;;;;;10.50;28.70;;;;;;5068442;28;20081;-66
2022/02/05 07:48:41;;;;;;;11.70;2.80;;;10.30;29.00;;;;;;5069018;28;20484;-66
2022/02/05 07:51:08;;;;;;;11.02;2.42;;;10.30;29.10;;;;;;5068164;28;20112;-67
2022/02/05 07:53:35;;;;;;;12.30;2.65;;;10.30;29.00;;;;;;5067885;28;20086;-67
2022/02/05 07:56:02;;;;;;;20.45;2.67;;;10.20;29.10;;;;;;5068118;28;20081;-67
2022/02/05 07:58:29;;;;;;;12.00;2.40;;;10.20;29.20;;;;;;5068558;28;20103;-67
2022/02/05 08:00:56;;;;;;;8.88;2.10;;;10.20;29.20;;;;;;5067382;28;20081;-65
2022/02/05 08:03:22;;;;;;;;;;;10.20;29.30;;;;;;5069106;28;20065;-68
2022/02/05 08:05:48;;;;;;;16.65;2.80;;;10.20;29.30;;;;;;5069742;28;19992;-65
2022/02/05 08:08:18;;;;;;;;;;;10.20;29.50;;;;;;5069974;28;20077;-67
2022/02/05 08:10:54;;;;;;;13.35;2.00;;;10.20;29.30;;;;;;5068047;28;19988;-66
2022/02/05 08:13:30;;;;;;;7.13;1.93;;;10.20;29.30;;;;;;5067796;28;20069;-68
2022/02/05 08:16:09;;;;;;;12.25;1.88;;;10.20;29.30;;;;;;5067609;28;20592;-67
2022/02/05 08:18:37;;;;;;;10.02;2.28;;;10.20;29.30;;;;;;5067852;28;20116;-65
2022/02/05 08:21:03;;;;;;;8.43;1.70;;;10.20;29.20;;;;;;5068338;28;20088;-65
2022/02/05 08:23:31;;;;;;;9.60;2.20;;;10.20;29.20;;;;;;5068867;28;20084;-68
2022/02/05 08:25:58;;;;;;;9.70;2.22;;;10.20;29.30;;;;;;5068950;28;20077;-66
2022/02/05 08:28:27;;;;;;;7.43;2.00;;;10.10;29.30;;;;;;5069226;28;20096;-67
2022/02/05 08:30:54;;;;;;;6.78;2.00;;;10.10;29.30;;;;;;5050643;28;20101;-66
2022/02/05 08:33:21;;;;;;;9.05;2.03;;;10.10;29.30;;;;;;5068979;28;20065;-65
2022/02/05 08:35:50;;;;;;;6.45;2.10;;;10.10;29.20;;;;;;5070090;28;20156;-66
2022/02/05 08:38:20;;;;;;;9.10;2.30;;;10.00;29.30;;;;;;5071959;28;20434;-67
2022/02/05 08:40:47;;;;;;;10.88;2.17;;;10.00;29.40;;;;;;5071149;28;20439;-67
2022/02/05 08:43:14;;;;;;;8.48;2.17;;;10.00;29.30;;;;;;5072495;28;21562;-65
2022/02/05 08:45:40;;;;;;;7.18;1.88;;;10.00;29.40;;;;;;5069619;28;20096;-67
2022/02/05 08:48:07;;;;;;;;;;;9.90;29.30;;;;;;5054253;28;20523;-64
2022/02/05 08:50:33;;;;;;;9.97;2.20;;;9.80;29.50;;;;;;5072601;28;19973;-65
2022/02/05 08:53:00;;;;;;;7.22;1.60;;;9.80;29.90;;;;;;5070733;28;20065;-65
2022/02/05 08:55:30;;;;;;;;;;;9.60;29.90;;;;;;5071430;28;20079;-66
2022/02/05 08:57:59;;;;;;;10.57;2.15;;;9.60;29.90;;;;;;5072636;28;20455;-68
2022/02/05 09:00:27;;;;;;;5.28;2.22;;;9.70;29.70;;;;;;5053127;28;20084;-65
2022/02/05 09:05:35;;;;;;;;;;;9.60;30.40;;;;;;5073248;28;20496;-66
2022/02/05 09:08:08;;;;;;;9.00;2.45;;;9.60;30.10;;;;;;5055492;28;19961;-65
2022/02/05 09:10:54;;;;;;;8.40;2.15;;;9.60;30.30;;;;;;5070742;28;21320;-64
2022/02/05 09:13:52;;;;;;;13.52;2.13;;;9.50;30.50;;;;;;5069626;28;20076;-63
2022/02/05 09:16:19;;;;;;;8.43;2.20;;;9.50;30.60;;;;;;5071865;28;20160;-64
2022/02/05 09:18:47;;;;;;;9.90;2.78;;;9.40;30.80;;;;;;5071785;28;20481;-66
2022/02/05 09:21:14;;;;;;;13.95;3.00;;;9.30;31.10;;;;;;5070176;28;20100;-66
2022/02/05 09:23:45;;;;;;;12.23;2.95;;;9.40;31.30;;;;;;5070587;28;20180;-64
2022/02/05 09:26:12;;;;;;;14.05;3.90;;;9.40;31.60;;;;;;5054755;28;20084;-66
2022/02/05 09:28:43;;;;;;;17.30;4.68;;;9.30;32.20;;;;;;5071410;28;20111;-65
2022/02/05 09:33:39;;;;;;;15.38;4.07;;;9.20;32.20;;;;;;5071811;28;20065;-66
2022/02/05 09:36:07;;;;;;;12.40;3.75;;;9.10;32.60;;;;;;5037676;28;20081;-67
2022/02/05 09:38:35;;;;;;;14.55;3.90;;;9.00;32.60;;;;;;5069289;28;20107;-66
2022/02/05 09:41:02;;;;;;;13.32;4.32;;;9.00;32.70;;;;;;5070619;28;20065;-66
2022/02/05 09:43:31;;;;;;;14.38;4.63;;;9.00;32.90;;;;;;5071368;28;20069;-67
2022/02/05 09:45:57;;;;;;;12.70;4.45;;;8.90;32.90;;;;;;5069898;28;20137;-67
2022/02/05 09:48:28;;;;;;;12.48;4.03;;;8.90;33.00;;;;;;5068710;28;20824;-67
2022/02/05 09:50:55;;;;;;;13.93;3.00;;;8.90;33.10;;;;;;5069160;28;20257;-64
2022/02/05 09:53:21;;;;;;;10.65;2.70;;;9.00;32.00;;;;;;5068442;28;20065;-66
2022/02/05 09:55:51;;;;;;;10.00;2.35;;;9.10;31.50;;;;;;5069427;28;20080;-64
2022/02/05 09:58:18;;;;;;;7.45;2.10;;;9.20;30.70;;;;;;5068525;28;20076;-65
2022/02/05 10:01:09;;;;;;;10.70;2.10;;;9.20;30.70;;;;;;5070970;28;20076;-65
2022/02/05 10:03:37;;;;;;;4.95;2.10;;;9.20;30.70;;;;;;5069344;28;20527;-65
2022/02/05 10:06:12;;;;;;;11.02;2.58;;;9.20;30.70;;;;;;5069109;28;20088;-64
2022/02/05 10:08:43;;;;;;;7.93;2.72;;;9.20;30.70;;;;;;5069223;28;20076;-66
2022/02/05 10:11:10;;;;;;;12.82;3.28;;;9.20;30.90;;;;;;5068211;28;20089;-65
2022/02/05 10:13:36;;;;;;;;;;;9.20;31.10;;;;;;5069097;28;20183;-65
2022/02/05 10:16:02;;;;;;;11.80;3.45;;;9.20;31.00;;;;;;5068329;28;20342;-66
2022/02/05 10:18:32;;;;;;;8.48;3.08;;;9.20;31.90;;;;;;5068190;28;20108;-66
2022/02/05 10:21:24;;;;;;;6.97;3.08;;;9.20;32.30;;;;;;5069812;28;20073;-64
2022/02/05 10:24:08;;;;;;;9.07;3.42;;;9.10;32.20;;;;;;5069569;28;20178;-64
2022/02/05 10:26:37;;;;;;;13.52;4.28;;;9.00;32.20;;;;;;5052655;28;20539;-64
2022/02/05 10:29:09;;;;;;;9.00;3.40;;;9.00;32.50;;;;;;5052095;28;20101;-65
2022/02/05 10:32:07;;;;;;;15.18;4.18;;;8.90;32.80;;;;;;5069030;28;20088;-65
2022/02/05 10:34:55;;;;;;;12.60;4.47;;;8.90;33.10;;;;;;5054883;28;20167;-65
2022/02/05 10:37:27;;;;;;;12.75;4.38;;;8.80;32.80;;;;;;5053597;28;20085;-64
2022/02/05 10:45:12;;;;;;;13.80;5.30;;;8.80;33.30;;;;;;5070532;28;20435;-63
2022/02/05 10:47:53;;;;;;;10.70;4.53;;;8.80;33.00;;;;;;5068639;28;20092;-63
2022/02/05 10:50:33;;;;;;;9.18;3.65;;;8.80;32.90;;;;;;5068632;28;20080;-63
2022/02/05 10:53:19;;;;;;;16.83;4.18;;;8.80;32.60;;;;;;5068982;28;20431;-64
2022/02/05 11:06:00;;;;;;;6.13;3.00;;;8.70;33.10;;;;;;5070027;28;20442;-65
2022/02/05 11:08:28;;;;;;;10.40;3.22;;;8.80;32.90;;;;;;5066838;28;20077;-63
2022/02/05 11:21:15;;;;;;;12.30;3.60;;;8.50;33.60;;;;;;5069886;28;20076;-65
2022/02/05 11:23:46;;;;;;;13.38;3.55;;;8.50;34.80;;;;;;5067511;28;20126;-63
2022/02/05 11:26:14;;;;;;;15.73;4.05;;;8.50;34.50;;;;;;5067789;28;20175;-63
2022/02/05 11:28:55;;;;;;;11.30;3.95;;;8.40;34.70;;;;;;5067656;28;20458;-64
2022/02/05 11:31:43;;;;;;;9.40;3.97;;;8.40;35.00;;;;;;5069495;28;20563;-66
2022/02/05 11:34:36;;;;;;;12.32;4.05;;;8.40;35.50;;;;;;5069136;28;20520;-64
2022/02/05 11:37:08;;;;;;;15.38;5.15;;;8.30;35.50;;;;;;5069407;28;20093;-65
2022/02/05 11:39:49;;;;;;;16.00;5.03;;;8.20;35.30;;;;;;5067427;28;20084;-63
2022/02/05 11:42:36;;;;;;;13.65;5.97;;;8.30;36.20;;;;;;5051434;28;20142;-63
2022/02/05 11:45:24;;;;;;;15.95;5.45;;;8.30;36.00;;;;;;5068361;28;20526;-65
2022/02/05 11:47:51;;;;;;;14.25;5.88;;;8.30;35.70;;;;;;5067936;28;20085;-65
2022/02/05 11:50:18;;;;;;;;;;;8.20;35.50;;;;;;5068485;28;20108;-66
2022/02/05 11:52:44;;;;;;;;;;;8.10;35.70;;;;;;5069727;28;20060;-63
2022/02/05 11:55:13;;;;;;;25.90;6.20;;;8.00;36.10;;;;;;5067891;28;20006;-66
2022/02/05 11:57:43;;;;;;;22.30;6.57;;;8.10;36.60;;;;;;5067619;28;20093;-65
2022/02/05 12:00:11;;;;;;;21.05;6.50;;;8.10;36.70;;;;;;5068579;28;20073;-65
2022/02/05 12:02:44;;;;;;;20.17;6.75;;;8.10;36.70;;;;;;5067980;28;20077;-65
2022/02/05 12:05:15;;;;;;;20.65;6.65;;;7.90;36.60;;;;;;5069950;28;20164;-65
2022/02/05 12:08:10;;;;;;;23.02;6.30;;;8.00;37.00;;;;;;5066807;28;20100;-65
2022/02/05 12:10:50;;;;;;;17.48;6.57;;;8.00;37.50;;;;;;5053618;28;20097;-66
2022/02/05 12:13:23;;;;;;;23.20;7.68;;;8.00;37.40;;;;;;5070695;28;20576;-67
2022/02/05 12:16:11;;;;;;;20.80;7.05;;;8.00;37.50;;;;;;5072521;28;20546;-67
2022/02/05 12:19:16;;;;;;;19.92;6.75;;;8.00;38.00;;;;;;5072497;28;20182;-65
2022/02/05 12:22:09;;;;;;;18.92;6.63;;;7.90;38.40;;;;;;5071441;28;20431;-65
2022/02/05 12:25:11;;;;;;;14.18;6.20;;;7.90;38.50;;;;;;5056655;28;20503;-65
2022/02/05 12:27:38;;;;;;;22.00;6.75;;;7.80;38.30;;;;;;5072862;28;20088;-65
2022/02/05 12:30:22;;;;;;;;;;;7.80;38.00;;;;;;5072231;28;20138;-64
2022/02/05 12:32:50;;;;;;;12.65;5.72;;;7.80;38.50;;;;;;5071037;28;19980;-66
2022/02/05 12:35:17;;;;;;;16.55;5.78;;;7.70;38.50;;;;;;5038595;28;20073;-66
2022/02/05 12:37:44;;;;;;;20.20;5.72;;;7.80;38.60;;;;;;5070941;28;20103;-66
2022/02/05 12:40:11;;;;;;;13.68;5.38;;;7.70;38.20;;;;;;5054450;28;20073;-66
2022/02/05 12:42:41;;;;;;;10.30;4.93;;;7.70;38.50;;;;;;5072292;28;20143;-66
2022/02/05 12:45:10;;;;;;;14.52;4.57;;;7.70;38.70;;;;;;5055507;28;20416;-66
2022/02/05 12:47:42;;;;;;;23.90;4.97;;;7.70;39.80;;;;;;5071224;28;20111;-65
2022/02/05 12:50:14;;;;;;;12.95;4.82;;;7.60;40.20;;;;;;5071050;28;20112;-64
2022/02/05 12:52:48;;;;;;;20.00;5.38;;;7.60;40.50;;;;;;5038762;28;20120;-67
2022/02/05 12:55:24;;;;;;;21.10;5.05;;;7.60;40.50;;;;;;5070767;28;20092;-66
2022/02/05 12:58:01;;;;;;;17.00;4.45;;;7.60;40.60;;;;;;5070488;28;20071;-65
2022/02/05 13:00:28;;;;;;;19.90;4.78;;;7.50;40.40;;;;;;5070398;28;20130;-64
2022/02/05 13:02:55;;;;;;;10.93;4.13;;;7.50;39.90;;;;;;5070925;28;20081;-66
2022/02/05 13:05:34;;;;;;;9.18;4.00;;;7.50;40.50;;;;;;5070876;28;20126;-64
2022/02/05 13:08:01;;;;;;;21.27;4.03;;;7.50;41.80;;;;;;5054828;28;20084;-64
2022/02/05 13:10:40;;;;;;;;;;;7.40;41.80;;;;;;5054491;28;20115;-64
2022/02/05 13:13:07;;;;;;;21.88;4.07;;;7.30;41.70;;;;;;5072028;28;19964;-66
2022/02/05 13:15:34;;;;;;;24.23;4.43;;;7.20;41.80;;;;;;5070658;28;20493;-64
2022/02/05 13:34:07;;;;;;;13.23;3.35;;;7.10;41.50;;;;;;5071959;28;20104;-65
2022/02/05 13:36:44;;;;;;;16.83;3.10;;;7.10;41.50;;;;;;5070807;28;20076;-67
2022/02/05 13:39:31;;;;;;;18.30;3.55;;;7.10;42.00;;;;;;5055155;28;20073;-67
2022/02/05 13:42:03;;;;;;;16.63;4.20;;;7.20;42.70;;;;;;5069763;28;20167;-66
2022/02/05 13:47:22;;;;;;;16.33;5.55;;;7.00;43.00;;;;;;5071004;28;20070;-64
2022/02/05 13:49:59;;;;;;;18.08;5.32;;;7.00;43.80;;;;;;5070134;28;20108;-66
2022/02/05 13:52:32;;;;;;;20.88;7.63;;;6.90;43.70;;;;;;5071627;28;20645;-65
2022/02/05 13:55:12;;;;;;;21.52;6.85;;;6.90;44.50;;;;;;5069855;28;20100;-65
2022/02/05 13:58:11;;;;;;;21.48;6.45;;;6.80;44.50;;;;;;5071561;28;20069;-67
2022/02/05 14:00:45;;;;;;;28.65;7.25;;;6.80;44.80;;;;;;5071165;28;20180;-67
2022/02/05 14:03:28;;;;;;;18.35;6.15;;;6.80;45.00;;;;;;5069750;28;20155;-66
2022/02/05 14:06:07;;;;;;;21.10;6.78;;;6.70;44.80;;;;;;5070428;28;20081;-66
2022/02/05 14:08:50;;;;;;;23.38;6.50;;;6.70;44.20;;;;;;5068147;28;20137;-65
2022/02/05 14:11:27;;;;;;;19.15;6.32;;;6.70;44.40;;;;;;5052827;28;20146;-64
2022/02/05 14:14:01;;;;;;;28.45;7.22;;;6.70;44.40;;;;;;5067890;28;20080;-65
2022/02/05 14:16:35;;;;;;;28.65;7.53;;;6.70;44.30;;;;;;5068676;28;20522;-65
2022/02/05 14:19:04;;;;;;;23.65;6.95;;;6.70;44.70;;;;;;5069369;28;20069;-65
2022/02/05 14:21:39;;;;;;;29.58;6.18;;;6.60;45.20;;;;;;5053249;28;20176;-67
2022/02/05 14:24:18;;;;;;;18.13;6.68;;;6.70;45.00;;;;;;5071094;28;20491;-64
2022/02/05 14:27:07;;;;;;;23.42;6.45;;;6.60;45.20;;;;;;5068909;28;20077;-64
2022/02/05 14:29:42;;;;;;;;;;;6.70;45.40;;;;;;5069841;28;20567;-63
2022/02/05 14:32:21;;;;;;;22.13;7.57;;;6.60;45.30;;;;;;5068735;28;20388;-64
2022/02/05 14:40:47;;;;;;;36.42;9.63;;;6.60;45.60;;;;;;5070254;28;20084;-66
2022/02/05 14:43:17;;;;;;;44.50;10.05;;;6.60;45.40;;;;;;5054852;28;20088;-64
2022/02/05 14:45:45;;;;;;;35.08;10.25;;;6.60;46.20;;;;;;5070344;28;20159;-66
2022/02/05 14:48:12;;;;;;;42.67;11.75;;;6.50;46.50;;;;;;5068611;28;20214;-65
2022/02/05 14:50:39;;;;;;;48.38;12.40;;;6.60;46.30;;;;;;5068659;28;20089;-64
2022/02/05 14:53:05;;;;;;;41.25;12.10;;;6.60;45.70;;;;;;5070047;28;20070;-64
2022/02/05 14:55:31;;;;;;;;;;;6.60;46.00;;;;;;5070588;28;20065;-64
2022/02/05 14:57:58;;;;;;;48.20;11.52;;;6.70;46.70;;;;;;5067608;28;19961;-67
2022/02/05 15:00:24;;;;;;;;;;;6.60;47.00;;;;;;5069794;28;20546;-64
2022/02/05 15:02:50;;;;;;;49.75;11.30;;;6.70;46.80;;;;;;5051132;28;20430;-65
2022/02/05 15:05:17;;;;;;;40.25;10.60;;;6.70;47.00;;;;;;5069109;28;20083;-66
2022/02/05 15:07:45;;;;;;;35.63;10.45;;;6.80;47.00;;;;;;5068756;28;20100;-64
2022/02/05 15:10:14;;;;;;;33.38;8.95;;;6.80;46.60;;;;;;5067558;28;20096;-66
2022/02/05 15:12:41;;;;;;;41.40;9.85;;;6.80;46.40;;;;;;5068392;28;20077;-65
2022/02/05 15:15:14;;;;;;;24.17;8.13;;;6.90;46.00;;;;;;5068811;28;20065;-65
2022/02/05 15:17:43;;;;;;;38.00;9.05;;;6.90;45.80;;;;;;5067895;28;21070;-66
2022/02/05 15:20:11;;;;;;;39.55;8.30;;;7.00;45.60;;;;;;5068112;28;20435;-65
2022/02/05 15:22:38;;;;;;;35.83;8.52;;;7.10;44.70;;;;;;5051172;28;21022;-67
2022/02/05 15:25:05;;;;;;;;;;;7.20;44.30;;;;;;5068293;28;20542;-65
2022/02/05 15:27:32;;;;;;;30.42;7.60;;;7.20;43.90;;;;;;5068347;28;19957;-63
2022/02/05 15:29:59;;;;;;;40.95;8.80;;;7.30;43.70;;;;;;5067877;28;20081;-63
2022/02/05 15:32:25;;;;;;;39.42;7.85;;;7.40;43.50;;;;;;5050835;28;21001;-64
2022/02/05 15:34:51;;;;;;;;;;;7.50;43.80;;;;;;5050753;28;20074;-66
2022/02/05 15:37:21;;;;;;;32.55;6.88;;;7.60;43.40;;;;;;5069881;28;20076;-64
2022/02/05 15:45:05;;;;;;;28.98;7.07;;;8.00;41.00;;;;;;5068056;28;20084;-66
2022/02/05 15:47:32;;;;;;;36.65;6.80;;;8.20;39.50;;;;;;5067982;28;20077;-66
2022/02/05 15:49:58;;;;;;;30.60;6.95;;;8.30;39.80;;;;;;5067981;28;20105;-64
2022/02/05 15:52:25;;;;;;;30.65;6.90;;;8.50;40.20;;;;;;5068059;28;20602;-64
2022/02/05 15:54:52;;;;;;;;;;;8.60;40.00;;;;;;5068995;28;20802;-66
2022/02/05 15:57:33;;;;;;;39.42;7.25;;;8.70;39.30;;;;;;5039487;28;19957;-64
2022/02/05 16:02:25;;;;;;;;;;;9.10;38.40;;;;;;5069820;28;20127;-62
2022/02/05 16:04:52;;;;;;;39.75;7.13;;;9.30;37.30;;;;;;5068322;28;20011;-65
2022/02/05 16:07:18;;;;;;;28.27;5.95;;;9.50;37.00;;;;;;5069117;28;20436;-66
2022/02/05 16:09:44;;;;;;;;;;;9.70;36.50;;;;;;5067254;28;20080;-66
2022/02/05 16:12:12;;;;;;;19.90;5.28;;;9.90;35.80;;;;;;5067083;28;19977;-64
2022/02/05 16:14:39;;;;;;;22.92;5.00;;;10.10;35.80;;;;;;5066120;28;20453;-65
2022/02/05 16:17:06;;;;;;;24.63;4.85;;;10.40;34.40;;;;;;5067714;28;20203;-65
2022/02/05 16:19:32;;;;;;;;;;;10.60;34.30;;;;;;5068276;28;20105;-67
2022/02/05 16:21:59;;;;;;;19.20;4.78;;;10.90;33.60;;;;;;5069440;28;19976;-66
2022/02/05 16:24:25;;;;;;;27.00;4.00;;;11.10;34.00;;;;;;5067892;28;20163;-64
2022/02/05 16:26:52;;;;;;;14.13;2.45;;;11.40;33.60;;;;;;5067054;28;20122;-64